»·PEaware :: N458ND KBOI-KSUN

N458ND :: KBOI-KSUN

FLIGHT INFORMATION

Flight Status: Arrived
Operator: Privately registered:
United States
More flights under this callsign
Pilot: Benjamin S. (30850)
Aircraft: PIPER PA-28R-201 ARROW
(P28R)
More flights by this aircraft type
Origin: KBOI Boise Air Terminal/Gowen
United States
Destination: KSUN Friedman Meml
United States
More flights between these airports :: More routes between these airports
Route: +
File this flight plan on PilotEdge
Remarks:
Altitude:
(Current/Filed)
9,500ft
Speed:
(Current/Filed)
0kts
Departed: 21-Sep-20 07:55 PM
Arrived: 21-Sep-20 09:07 PM
Distance/Time
Traveled:
84nm/1:12
Distance/Time
To Go:
Arrived

Flight Plot

Page will automatically refresh every two minutes.

Flight plan parsing failed; only flown route is shown


Map Options




Map Legend


Flown Route
Filed Route
Departure Airport
Arrival Airport
Navaid (VOR, NDB)
Fix

Horizontal Profiles

Position Reports

Time Latitude Longitude Heading Altitude Ground
Speed
21-Sep-20 19:49 43.565392 -116.244145 88 2810ft 0kts
21-Sep-20 19:51 43.565392 -116.244145 88 2810ft 0kts
21-Sep-20 19:52 43.565608 -116.243223 90 2811ft 14kts
21-Sep-20 19:53 43.568932 -116.242652 1 2811ft 6kts
21-Sep-20 19:54 43.569028 -116.242654 359 2810ft 0kts
21-Sep-20 19:55 43.567924 -116.236398 116 2834ft 74kts
21-Sep-20 19:56 43.559442 -116.209728 111 3666ft 76kts
21-Sep-20 19:57 43.552170 -116.182951 109 4537ft 74kts
21-Sep-20 19:58 43.547868 -116.156555 106 5224ft 80kts
21-Sep-20 19:59 43.544121 -116.132533 107 5830ft 79kts
21-Sep-20 20:00 43.539367 -116.104548 112 5756ft 80kts
21-Sep-20 20:01 43.531589 -116.073283 119 5951ft 87kts
21-Sep-20 20:02 43.542889 -116.076160 279 6040ft 102kts
21-Sep-20 20:03 43.551999 -116.118584 285 4831ft 122kts
21-Sep-20 20:04 43.560985 -116.163630 280 3876ft 114kts
21-Sep-20 20:05 43.569176 -116.202381 298 3379ft 98kts
21-Sep-20 20:05 43.579418 -116.230242 299 3407ft 97kts
21-Sep-20 20:07 43.573541 -116.246295 123 3064ft 77kts
21-Sep-20 20:08 43.566213 -116.225113 113 2843ft 30kts
21-Sep-20 20:08 43.563009 -116.224360 206 2843ft 26kts
21-Sep-20 20:10 43.560005 -116.221780 87 2843ft 0kts
21-Sep-20 20:11 43.560005 -116.221780 87 2843ft 0kts
21-Sep-20 20:11 43.560005 -116.221780 87 2843ft 0kts
21-Sep-20 20:12 43.560005 -116.221780 87 2843ft 0kts
21-Sep-20 20:13 43.560005 -116.221780 87 2843ft 0kts
21-Sep-20 20:14 43.560005 -116.221780 87 2843ft 0kts
21-Sep-20 20:15 43.560005 -116.221780 87 2843ft 0kts
21-Sep-20 20:16 43.560005 -116.221780 87 2843ft 0kts
21-Sep-20 20:17 43.560005 -116.221780 87 2843ft 0kts
21-Sep-20 20:18 43.560005 -116.221780 87 2843ft 0kts
21-Sep-20 20:19 43.560005 -116.221780 87 2843ft 0kts
21-Sep-20 20:20 43.565795 -116.243507 149 2810ft 0kts
21-Sep-20 20:21 43.565795 -116.243507 149 2810ft 0kts
21-Sep-20 20:28 43.565795 -116.243507 149 2810ft 0kts
21-Sep-20 20:29 43.565680 -116.242585 69 2812ft 0kts
21-Sep-20 20:30 43.567215 -116.242677 0 2812ft 23kts
21-Sep-20 20:31 43.569046 -116.242657 1 2810ft 0kts
21-Sep-20 20:32 43.569046 -116.242657 1 2810ft 0kts
21-Sep-20 20:33 43.567332 -116.234636 114 2870ft 80kts
21-Sep-20 20:34 43.560452 -116.206402 104 3732ft 79kts
21-Sep-20 20:35 43.558039 -116.173515 93 4495ft 93kts
21-Sep-20 20:36 43.560126 -116.136281 85 5252ft 101kts
21-Sep-20 20:37 43.562939 -116.098642 132 6001ft 96kts
21-Sep-20 20:38 43.542512 -116.075973 119 6753ft 97kts
21-Sep-20 20:39 43.533759 -116.040664 113 7502ft 97kts
21-Sep-20 20:40 43.526576 -116.005024 111 8251ft 96kts
21-Sep-20 20:41 43.520255 -115.969597 111 9001ft 94kts
21-Sep-20 20:42 43.514843 -115.936105 106 9671ft 94kts
21-Sep-20 20:43 43.510302 -115.890483 100 9535ft 148kts
21-Sep-20 20:44 43.497279 -115.816053 110 9506ft 142kts
21-Sep-20 20:45 43.479132 -115.707872 108 9510ft 142kts
21-Sep-20 20:46 43.467483 -115.633663 108 9511ft 142kts
21-Sep-20 20:47 43.434702 -115.424447 108 9512ft 142kts
21-Sep-20 20:48 43.420339 -115.333470 109 9510ft 142kts
21-Sep-20 20:49 43.417065 -115.313382 109 9510ft 142kts
21-Sep-20 20:50 43.410771 -115.274374 109 9510ft 142kts
21-Sep-20 20:51 43.402311 -115.221516 109 9510ft 142kts
21-Sep-20 20:52 43.393843 -115.168458 108 9531ft 141kts
21-Sep-20 20:53 43.385361 -115.115316 108 9578ft 143kts
21-Sep-20 20:54 43.370621 -115.023685 107 9640ft 146kts
21-Sep-20 20:55 43.334632 -114.800751 105 9716ft 151kts
21-Sep-20 20:56 43.311327 -114.657945 105 9722ft 152kts
21-Sep-20 20:57 43.310382 -114.599994 86 9722ft 154kts
21-Sep-20 20:58 43.324907 -114.374744 86 9726ft 154kts
21-Sep-20 20:59 43.335434 -114.213873 81 9488ft 156kts
21-Sep-20 21:00 43.370000 -114.194627 351 8461ft 147kts
21-Sep-20 21:01 43.407430 -114.204158 332 6881ft 133kts
21-Sep-20 21:02 43.435686 -114.228676 320 6211ft 117kts
21-Sep-20 21:03 43.462265 -114.255195 323 5963ft 110kts
21-Sep-20 21:04 43.483185 -114.275747 323 5598ft 81kts
21-Sep-20 21:05 43.498673 -114.290623 324 5268ft 46kts
21-Sep-20 21:06 43.503642 -114.296654 236 5285ft 0kts
21-Sep-20 21:07 43.498572 -114.291973 144 5269ft 23kts
21-Sep-20 21:08 43.498509 -114.292739 47 5270ft 3kts
21-Sep-20 21:09 43.498584 -114.292608 54 5270ft 0kts

Navigation Log

Ident Type
Flight plan parsing failed, navigation log unavailable